createdAt,value
2023-04-11T00:00:55.408Z,64.55
2023-04-11T00:01:55.416Z,62.65
2023-04-11T00:02:55.548Z,63.53
2023-04-11T00:03:55.436Z,62.81
2023-04-11T00:04:55.436Z,60.08
2023-04-11T00:05:55.368Z,60.94
2023-04-11T00:06:55.339Z,64.33
2023-04-11T00:07:55.326Z,59.95
2023-04-11T00:08:55.496Z,61.65
2023-04-11T00:09:55.300Z,58.30
2023-04-11T00:10:55.360Z,58.47
2023-04-11T00:11:55.289Z,61.28
2023-04-11T00:12:55.273Z,61.29
2023-04-11T00:13:55.267Z,61.42
2023-04-11T00:14:55.249Z,61.11
2023-04-11T00:15:55.270Z,62.72
2023-04-11T00:16:55.280Z,60.47
2023-04-11T00:17:55.275Z,61.45
2023-04-11T00:18:55.377Z,62.20
2023-04-11T00:19:55.205Z,61.95
2023-04-11T00:20:55.203Z,58.57
2023-04-11T00:21:55.178Z,57.71
2023-04-11T00:22:55.189Z,60.71
2023-04-11T00:23:55.158Z,60.64
2023-04-11T00:24:55.156Z,59.88
2023-04-11T00:25:55.157Z,55.79
2023-04-11T00:26:55.134Z,61.47
2023-04-11T00:27:55.138Z,57.99
2023-04-11T00:28:55.208Z,61.52
2023-04-11T00:29:55.096Z,60.28
2023-04-11T00:30:55.121Z,59.46
2023-04-11T00:31:55.092Z,60.07
2023-04-11T00:32:55.085Z,59.74
2023-04-11T00:33:55.062Z,60.86
2023-04-11T00:34:55.054Z,58.71
2023-04-11T00:35:55.158Z,60.37
2023-04-11T00:36:55.101Z,60.52
2023-04-11T00:37:55.040Z,60.54
2023-04-11T00:38:55.570Z,61.70
2023-04-11T00:39:55.021Z,60.76
2023-04-11T00:40:55.024Z,60.95
2023-04-11T00:41:54.979Z,63.31
2023-04-11T00:42:54.979Z,62.04
2023-04-11T00:43:54.973Z,62.59
2023-04-11T00:44:54.958Z,64.04
2023-04-11T00:45:54.989Z,61.13
2023-04-11T00:46:54.936Z,61.93
2023-04-11T00:47:54.949Z,60.43
2023-04-11T00:48:55.115Z,62.41
2023-04-11T00:49:54.903Z,62.14
2023-04-11T00:50:54.916Z,62.48
2023-04-11T00:51:54.889Z,63.07
2023-04-11T00:52:54.886Z,63.06
2023-04-11T00:53:54.881Z,61.70
2023-04-11T00:54:54.860Z,61.56
2023-04-11T00:55:54.890Z,62.34
2023-04-11T00:56:54.837Z,62.48
2023-04-11T00:57:54.848Z,65.20
2023-04-11T00:58:54.919Z,64.39
2023-04-11T00:59:54.814Z,64.04
2023-04-11T01:00:54.884Z,63.79
2023-04-11T01:01:54.900Z,63.64
2023-04-11T01:02:54.863Z,61.05
2023-04-11T01:03:54.859Z,61.79
2023-04-11T01:04:54.788Z,62.04
2023-04-11T01:05:54.770Z,62.48
2023-04-11T01:06:54.749Z,63.38
2023-04-11T01:07:54.743Z,64.33
2023-04-11T01:08:55.144Z,62.80
2023-04-11T01:09:54.749Z,60.27
2023-04-11T01:10:54.738Z,62.14
2023-04-11T01:11:54.703Z,64.18
2023-04-11T01:12:54.695Z,62.61
2023-04-11T01:13:54.685Z,61.46
2023-04-11T01:14:54.675Z,62.06
2023-04-11T01:15:54.675Z,62.58
2023-04-11T01:16:54.708Z,60.66
2023-04-11T01:17:54.697Z,64.02
2023-04-11T01:18:54.734Z,63.59
2023-04-11T01:19:54.626Z,62.09
2023-04-11T01:20:54.641Z,62.20
2023-04-11T01:21:54.611Z,61.18
2023-04-11T01:22:54.602Z,62.43
2023-04-11T01:23:54.584Z,63.61
2023-04-11T01:24:54.588Z,61.53
2023-04-11T01:25:54.620Z,64.47
2023-04-11T01:26:54.583Z,64.33
2023-04-11T01:27:54.556Z,62.74
2023-04-11T01:28:54.794Z,64.66
2023-04-11T01:29:54.542Z,63.64
2023-04-11T01:30:54.592Z,64.21
2023-04-11T01:31:54.505Z,63.91
2023-04-11T01:32:55.531Z,63.95
2023-04-11T01:33:54.486Z,63.78
2023-04-11T01:34:54.478Z,63.81
2023-04-11T01:35:54.499Z,65.02
2023-04-11T01:36:54.458Z,64.42
2023-04-11T01:37:54.477Z,64.01
2023-04-11T01:38:54.775Z,65.61
2023-04-11T01:39:54.436Z,64.68
2023-04-11T01:40:54.434Z,63.53
2023-04-11T01:41:54.431Z,64.25
2023-04-11T01:42:54.389Z,63.69
2023-04-11T01:43:54.394Z,63.75
2023-04-11T01:44:54.385Z,64.07
2023-04-11T01:45:54.397Z,62.82
2023-04-11T01:46:54.369Z,62.72
2023-04-11T01:47:54.609Z,62.26
2023-04-11T01:48:54.552Z,63.49
2023-04-11T01:49:54.333Z,61.90
2023-04-11T01:50:54.318Z,62.39
2023-04-11T01:51:54.351Z,65.27
2023-04-11T01:52:54.309Z,63.30
2023-04-11T01:53:54.292Z,63.35
2023-04-11T01:54:54.276Z,63.39
2023-04-11T01:55:54.281Z,62.35
2023-04-11T01:56:54.255Z,61.94
2023-04-11T01:57:54.245Z,62.52
2023-04-11T01:58:54.495Z,63.02
2023-04-11T01:59:54.250Z,63.14
2023-04-11T02:00:54.221Z,62.44
2023-04-11T02:01:54.284Z,63.99
2023-04-11T02:02:54.407Z,64.48
2023-04-11T02:03:54.296Z,65.16
2023-04-11T02:04:54.219Z,64.83
2023-04-11T02:05:54.172Z,64.02
2023-04-11T02:06:54.199Z,64.44
2023-04-11T02:07:54.150Z,63.51
2023-04-11T02:08:54.355Z,63.63
2023-04-11T02:09:54.127Z,63.00
2023-04-11T02:10:54.141Z,60.81
2023-04-11T02:11:54.136Z,63.08
2023-04-11T02:12:54.100Z,62.56
2023-04-11T02:13:54.115Z,59.56
2023-04-11T02:14:54.080Z,62.56
2023-04-11T02:15:54.146Z,60.95
2023-04-11T02:16:54.072Z,62.18
2023-04-11T02:17:54.142Z,61.33
2023-04-11T02:18:54.152Z,61.88
2023-04-11T02:19:54.044Z,61.03
2023-04-11T02:20:54.030Z,60.09
2023-04-11T02:21:54.082Z,61.45
2023-04-11T02:22:54.005Z,61.13
2023-04-11T02:23:53.992Z,61.84
2023-04-11T02:24:53.988Z,62.10
2023-04-11T02:25:53.979Z,64.75
2023-04-11T02:26:53.982Z,61.30
2023-04-11T02:27:53.972Z,61.94
2023-04-11T02:28:54.031Z,62.33
2023-04-11T02:29:53.940Z,61.12
2023-04-11T02:30:54.009Z,61.88
2023-04-11T02:31:53.973Z,62.60
2023-04-11T02:32:53.979Z,59.25
2023-04-11T02:33:53.898Z,61.23
2023-04-11T02:34:53.882Z,62.40
2023-04-11T02:35:54.022Z,61.80
2023-04-11T02:36:53.931Z,59.07
2023-04-11T02:37:53.853Z,60.56
2023-04-11T02:38:54.037Z,62.54
2023-04-11T02:39:53.848Z,62.28
2023-04-11T02:40:53.822Z,62.21
2023-04-11T02:41:53.834Z,61.64
2023-04-11T02:42:53.809Z,61.70
2023-04-11T02:43:53.850Z,63.32
2023-04-11T02:44:53.796Z,63.32
2023-04-11T02:46:01.922Z,65.25
2023-04-11T02:46:55.815Z,64.11
2023-04-11T02:47:53.808Z,63.11
2023-04-11T02:48:53.930Z,63.65
2023-04-11T02:49:53.744Z,63.40
2023-04-11T02:50:53.735Z,63.39
2023-04-11T02:51:54.408Z,65.17
2023-04-11T02:52:53.707Z,63.24
2023-04-11T02:53:53.697Z,63.75
2023-04-11T02:54:53.690Z,63.91
2023-04-11T02:55:53.702Z,64.43
2023-04-11T02:56:53.710Z,64.58
2023-04-11T02:57:53.683Z,63.63
2023-04-11T02:58:53.760Z,64.42
2023-04-11T02:59:53.669Z,65.43
2023-04-11T03:00:53.636Z,65.24
2023-04-11T03:01:53.680Z,65.93
2023-04-11T03:02:53.672Z,66.58
2023-04-11T03:03:53.711Z,66.00
2023-04-11T03:04:53.611Z,64.73
2023-04-11T03:05:53.607Z,65.36
2023-04-11T03:06:53.635Z,66.60
2023-04-11T03:07:53.597Z,66.77
2023-04-11T03:08:53.898Z,67.15
2023-04-11T03:09:53.576Z,66.19
2023-04-11T03:10:53.546Z,67.82
2023-04-11T03:11:53.539Z,67.39
2023-04-11T03:12:54.523Z,67.30
2023-04-11T03:13:53.511Z,66.16
2023-04-11T03:14:53.560Z,68.29
2023-04-11T03:15:53.520Z,67.21
2023-04-11T03:16:53.511Z,67.43
2023-04-11T03:17:53.527Z,67.61
2023-04-11T03:18:53.597Z,67.17
2023-04-11T03:19:53.462Z,67.79
2023-04-11T03:20:53.467Z,66.66
2023-04-11T03:21:53.448Z,66.71
2023-04-11T03:22:53.446Z,66.78
2023-04-11T03:23:53.417Z,66.99
2023-04-11T03:24:53.399Z,67.35
2023-04-11T03:25:53.499Z,66.60
2023-04-11T03:26:54.392Z,66.97
2023-04-11T03:27:53.369Z,66.40
2023-04-11T03:28:53.527Z,66.59
2023-04-11T03:29:53.360Z,66.39
2023-04-11T03:30:53.373Z,66.61
2023-04-11T03:31:53.336Z,67.30
2023-04-11T03:32:53.414Z,67.00
2023-04-11T03:33:53.321Z,67.70
2023-04-11T03:34:53.304Z,67.24
2023-04-11T03:35:53.381Z,68.24
2023-04-11T03:36:53.304Z,68.36
2023-04-11T03:37:53.273Z,66.72
2023-04-11T03:38:53.345Z,67.75
2023-04-11T03:39:53.277Z,67.41
2023-04-11T03:40:53.250Z,68.04
2023-04-11T03:41:53.262Z,67.84
2023-04-11T03:42:53.229Z,66.96
2023-04-11T03:46:32.687Z,66.80
2023-04-11T03:47:32.667Z,68.82
2023-04-11T03:48:33.745Z,67.68
2023-04-11T03:49:33.747Z,67.83
2023-04-11T03:50:33.746Z,67.89
2023-04-11T03:51:33.743Z,68.07
2023-04-11T03:52:33.700Z,68.22
2023-04-11T03:53:33.692Z,67.29
2023-04-11T03:54:33.678Z,67.10
2023-04-11T03:55:33.671Z,67.26
2023-04-11T03:56:33.675Z,68.07
2023-04-11T03:57:33.648Z,68.17
2023-04-11T03:58:33.639Z,67.29
2023-04-11T03:59:34.624Z,67.89
2023-04-11T04:00:33.613Z,68.08
2023-04-11T04:01:33.662Z,67.59
2023-04-11T04:02:33.713Z,68.61
2023-04-11T04:03:33.802Z,69.08
2023-04-11T04:04:33.674Z,68.64
2023-04-11T04:05:33.562Z,69.33
2023-04-11T04:06:33.590Z,69.00
2023-04-11T04:07:33.553Z,68.67
2023-04-11T04:08:33.549Z,68.94
2023-04-11T04:09:33.531Z,69.22
2023-04-11T04:10:33.527Z,69.04
2023-04-11T04:11:33.529Z,69.04
2023-04-11T04:12:33.506Z,69.47
2023-04-11T04:13:33.491Z,68.44
2023-04-11T04:14:33.474Z,68.71
2023-04-11T04:15:33.476Z,69.33
2023-04-11T04:16:33.524Z,68.69
2023-04-11T04:17:33.472Z,67.80
2023-04-11T04:18:33.440Z,68.92
2023-04-11T04:19:33.432Z,67.76
2023-04-11T04:20:33.435Z,67.42
2023-04-11T04:21:33.445Z,68.11
2023-04-11T04:22:33.406Z,69.14
2023-04-11T04:23:33.401Z,68.25
2023-04-11T04:24:34.391Z,67.72
2023-04-11T04:25:33.380Z,68.20
2023-04-11T04:26:33.459Z,69.05
2023-04-11T04:27:33.404Z,68.47
2023-04-11T04:28:33.355Z,68.29
2023-04-11T04:29:33.328Z,69.29
2023-04-11T04:30:34.338Z,69.04
2023-04-11T04:31:33.353Z,67.90
2023-04-11T04:32:33.330Z,67.57
2023-04-11T04:33:33.371Z,69.47
2023-04-11T04:34:33.290Z,69.47
2023-04-11T04:35:33.303Z,70.61
2023-04-11T04:36:33.275Z,70.01
2023-04-11T04:37:33.307Z,69.45
2023-04-11T04:38:33.257Z,69.51
2023-04-11T04:39:33.246Z,69.13
2023-04-11T04:40:33.240Z,68.94
2023-04-11T04:41:33.219Z,69.63
2023-04-11T04:42:33.236Z,68.72
2023-04-11T04:43:33.201Z,70.76
2023-04-11T04:44:33.192Z,69.99
2023-04-11T04:45:33.241Z,70.34
2023-04-11T04:46:33.177Z,69.49
2023-04-11T04:47:33.215Z,68.89
2023-04-11T04:48:33.174Z,68.86
2023-04-11T04:49:33.142Z,68.89
2023-04-11T04:50:33.140Z,68.79
2023-04-11T04:51:33.131Z,68.29
2023-04-11T04:52:33.153Z,69.02
2023-04-11T04:53:33.122Z,69.59
2023-04-11T04:54:33.083Z,68.73
2023-04-11T04:55:34.089Z,68.81
2023-04-11T04:56:33.088Z,69.78
2023-04-11T04:57:33.093Z,70.07
2023-04-11T04:58:33.067Z,69.16
2023-04-11T04:59:33.044Z,69.80
2023-04-11T05:00:33.042Z,68.97
2023-04-11T05:01:33.256Z,68.56
2023-04-11T05:02:33.194Z,70.08
2023-04-11T05:03:33.130Z,69.59
2023-04-11T05:04:32.999Z,69.70
2023-04-11T05:05:33.008Z,70.08
2023-04-11T05:06:32.985Z,69.56
2023-04-11T05:07:33.009Z,69.12
2023-04-11T05:08:32.975Z,69.23
2023-04-11T05:09:32.964Z,69.89
2023-04-11T05:10:32.963Z,69.42
2023-04-11T05:11:32.941Z,68.91
2023-04-11T05:12:32.948Z,68.93
2023-04-11T05:13:32.911Z,69.71
2023-04-11T05:14:32.910Z,69.90
2023-04-11T05:15:32.893Z,69.88
2023-04-11T05:16:32.914Z,69.83
2023-04-11T05:17:32.990Z,69.45
2023-04-11T05:18:32.875Z,70.26
2023-04-11T05:19:32.860Z,69.70
2023-04-11T05:20:32.854Z,70.41
2023-04-11T05:21:32.831Z,71.23
2023-04-11T05:22:32.847Z,71.31
2023-04-11T05:23:32.823Z,70.87
2023-04-11T05:24:32.810Z,70.26
2023-04-11T05:25:32.809Z,70.74
2023-04-11T05:26:32.789Z,70.92
2023-04-11T05:27:32.827Z,70.36
2023-04-11T05:28:32.773Z,69.88
2023-04-11T05:29:32.764Z,70.14
2023-04-11T05:30:32.786Z,70.50
2023-04-11T05:31:32.739Z,69.72
2023-04-11T05:32:32.805Z,69.98
2023-04-11T05:33:32.746Z,69.56
2023-04-11T05:34:32.739Z,69.46
2023-04-11T05:35:32.729Z,68.89
2023-04-11T05:36:32.695Z,70.52
2023-04-11T05:37:32.705Z,68.89
2023-04-11T05:38:32.671Z,69.43
2023-04-11T05:39:32.667Z,68.83
2023-04-11T05:40:32.660Z,68.82
2023-04-11T05:41:32.646Z,69.40
2023-04-11T05:42:32.658Z,69.48
2023-04-11T05:43:32.632Z,69.53
2023-04-11T05:44:32.636Z,68.75
2023-04-11T05:45:32.608Z,70.06
2023-04-11T05:46:32.684Z,70.13
2023-04-11T05:47:32.628Z,69.22
2023-04-11T05:48:32.575Z,69.51
2023-04-11T05:49:32.585Z,70.18
2023-04-11T05:50:32.571Z,70.60
2023-04-11T05:51:32.546Z,69.89
2023-04-11T05:52:32.562Z,69.78
2023-04-11T05:53:32.537Z,68.58
2023-04-11T05:54:32.521Z,69.60
2023-04-11T05:55:32.507Z,70.18
2023-04-11T05:56:32.534Z,71.00
2023-04-11T05:57:32.518Z,70.44
2023-04-11T05:58:32.481Z,69.80
2023-04-11T05:59:32.493Z,69.08
2023-04-11T06:00:32.526Z,69.20
2023-04-11T06:01:32.451Z,69.86
2023-04-11T06:02:32.546Z,69.90
2023-04-11T06:03:32.518Z,71.37
2023-04-11T06:04:32.634Z,70.74
2023-04-11T06:05:32.409Z,70.92
2023-04-11T06:06:32.404Z,70.41
2023-04-11T06:07:32.447Z,70.67
2023-04-11T06:08:32.384Z,70.20
2023-04-11T06:09:34.046Z,69.86
2023-04-11T06:10:32.363Z,69.72
2023-04-11T06:11:32.361Z,69.62
2023-04-11T06:12:32.356Z,71.45
2023-04-11T06:13:32.340Z,70.76
2023-04-11T06:14:32.326Z,69.83
2023-04-11T06:15:32.396Z,70.25
2023-04-11T06:16:32.452Z,70.49
2023-04-11T06:17:33.397Z,70.33
2023-04-11T06:18:32.291Z,71.12
2023-04-11T06:19:32.291Z,68.73
2023-04-11T06:20:32.277Z,69.69
2023-04-11T06:21:32.267Z,69.49
2023-04-11T06:22:32.269Z,69.85
2023-04-11T06:23:32.246Z,69.38
2023-04-11T06:24:32.230Z,68.71
2023-04-11T06:25:32.235Z,69.13
2023-04-11T06:26:32.222Z,68.50
2023-04-11T06:27:32.235Z,69.39
2023-04-11T06:28:32.195Z,67.92
2023-04-11T06:29:32.193Z,67.96
2023-04-11T06:30:32.178Z,68.39
2023-04-11T06:31:32.223Z,69.36
2023-04-11T06:32:32.183Z,68.76
2023-04-11T06:33:32.180Z,69.08
2023-04-11T06:34:32.149Z,69.52
2023-04-11T06:35:32.135Z,69.67
2023-04-11T06:36:32.114Z,69.11
2023-04-11T06:37:32.121Z,69.54
2023-04-11T06:38:32.102Z,69.68
2023-04-11T06:39:32.100Z,68.64
2023-04-11T06:40:32.088Z,67.70
2023-04-11T06:41:32.068Z,69.10
2023-04-11T06:42:32.073Z,69.01
2023-04-11T06:43:32.056Z,67.65
2023-04-11T06:44:32.050Z,68.64
2023-04-11T06:45:32.056Z,70.29
2023-04-11T06:46:32.091Z,68.31
2023-04-11T06:47:32.059Z,67.55
2023-04-11T06:48:32.005Z,68.31
2023-04-11T06:49:32.014Z,68.30
2023-04-11T06:50:32.020Z,67.00
2023-04-11T06:51:31.984Z,66.25
2023-04-11T06:52:32.010Z,67.14
2023-04-11T06:53:31.978Z,66.68
2023-04-11T06:54:31.956Z,65.59
2023-04-11T06:55:31.925Z,66.48
2023-04-11T06:56:31.914Z,65.15
2023-04-11T06:57:31.943Z,66.40
2023-04-11T06:58:31.908Z,65.69
2023-04-11T06:59:31.911Z,67.20
2023-04-11T07:00:31.879Z,66.46
2023-04-11T07:01:31.902Z,66.79
2023-04-11T07:02:32.087Z,66.82
2023-04-11T07:03:31.963Z,67.85
2023-04-11T07:04:31.879Z,67.07
2023-04-11T07:05:31.818Z,65.90
2023-04-11T07:06:31.838Z,66.17
2023-04-11T07:07:31.838Z,66.99
2023-04-11T07:08:31.806Z,67.08
2023-04-11T07:09:31.780Z,67.13
2023-04-11T07:10:31.815Z,68.10
2023-04-11T07:11:31.776Z,69.36
2023-04-11T07:12:31.784Z,68.92
2023-04-11T07:13:32.757Z,69.98
2023-04-11T07:14:31.745Z,68.91
2023-04-11T07:15:31.730Z,68.70
2023-04-11T07:16:31.762Z,69.05
2023-04-11T07:17:31.779Z,68.44
2023-04-11T07:18:31.705Z,67.66
2023-04-11T07:19:31.712Z,68.05
2023-04-11T07:20:31.686Z,68.99
2023-04-11T07:21:31.674Z,69.02
2023-04-11T07:22:31.675Z,69.30
2023-04-11T07:23:31.652Z,69.56
2023-04-11T07:24:31.639Z,70.97
2023-04-11T07:25:31.652Z,72.65
2023-04-11T07:26:31.619Z,72.67
2023-04-11T07:27:31.612Z,72.01
2023-04-11T07:28:31.607Z,71.34
2023-04-11T07:29:31.594Z,72.09
2023-04-11T07:30:31.606Z,71.70
2023-04-11T07:31:31.619Z,70.85
2023-04-11T07:32:31.570Z,70.87
2023-04-11T07:33:31.555Z,72.90
2023-04-11T07:34:31.544Z,73.41
2023-04-11T07:35:31.595Z,72.91
2023-04-11T07:36:31.526Z,71.76
2023-04-11T07:37:31.516Z,70.86
2023-04-11T07:38:31.517Z,72.39
2023-04-11T07:39:31.498Z,73.48
2023-04-11T07:40:31.487Z,72.22
2023-04-11T07:41:31.528Z,69.86
2023-04-11T07:42:31.471Z,71.52
2023-04-11T07:43:31.479Z,71.37
2023-04-11T07:44:31.455Z,70.36
2023-04-11T07:45:31.484Z,70.77
2023-04-11T07:46:31.444Z,69.87
2023-04-11T07:47:31.519Z,69.82
2023-04-11T07:48:31.405Z,69.89
2023-04-11T07:49:31.401Z,69.86
2023-04-11T07:50:31.491Z,69.12
2023-04-11T07:51:31.416Z,71.07
2023-04-11T07:52:31.368Z,69.23
2023-04-11T07:53:31.365Z,69.56
2023-04-11T07:54:31.345Z,70.42
2023-04-11T07:55:31.346Z,70.20
2023-04-11T07:56:31.363Z,70.06
2023-04-11T07:57:31.312Z,70.32
2023-04-11T07:58:31.318Z,70.11
2023-04-11T07:59:31.294Z,71.19
2023-04-11T08:00:31.290Z,70.46
2023-04-11T08:01:31.330Z,69.61
2023-04-11T08:02:31.473Z,69.22
2023-04-11T08:03:31.582Z,67.93
2023-04-11T08:04:31.450Z,68.32
2023-04-11T08:05:31.257Z,68.69
2023-04-11T08:06:31.449Z,68.60
2023-04-11T08:07:31.280Z,69.41
2023-04-11T08:08:31.461Z,68.97
2023-04-11T08:09:31.226Z,69.59
2023-04-11T08:10:31.190Z,71.11
2023-04-11T08:11:31.197Z,70.81
2023-04-11T08:12:31.165Z,69.01
2023-04-11T08:13:31.152Z,67.94
2023-04-11T08:14:31.142Z,68.45
2023-04-11T08:15:31.139Z,68.94
2023-04-11T08:16:31.185Z,68.95
2023-04-11T08:17:31.198Z,67.96
2023-04-11T08:18:31.106Z,68.12
2023-04-11T08:19:31.094Z,67.81
2023-04-11T08:20:31.850Z,69.64
2023-04-11T08:21:31.818Z,68.98
2023-04-11T08:22:31.061Z,69.00
2023-04-11T08:23:31.068Z,68.52
2023-04-11T08:24:31.060Z,68.71
2023-04-11T08:25:31.044Z,69.31
2023-04-11T08:26:31.042Z,68.25
2023-04-11T08:27:31.026Z,70.08
2023-04-11T08:28:31.011Z,69.37
2023-04-11T08:29:31.001Z,70.94
2023-04-11T08:30:31.035Z,69.49
2023-04-11T08:31:31.005Z,70.56
2023-04-11T08:32:31.022Z,69.39
2023-04-11T08:33:31.031Z,68.75
2023-04-11T08:34:30.946Z,69.87
2023-04-11T08:35:30.969Z,71.38
2023-04-11T08:36:30.969Z,70.56
2023-04-11T08:37:30.935Z,69.05
2023-04-11T08:38:30.918Z,67.48
2023-04-11T08:39:30.901Z,68.32
2023-04-11T08:40:30.902Z,68.47
2023-04-11T08:41:30.905Z,69.40
2023-04-11T08:42:30.879Z,68.36
2023-04-11T08:43:30.883Z,67.97
2023-04-11T08:44:30.850Z,68.50
2023-04-11T08:45:30.834Z,69.49
2023-04-11T08:46:30.983Z,69.62
2023-04-11T08:47:30.878Z,69.34
2023-04-11T08:48:30.812Z,69.39
2023-04-11T08:49:30.794Z,69.46
2023-04-11T08:50:30.804Z,69.65
2023-04-11T08:51:30.832Z,68.37
2023-04-11T08:52:30.768Z,69.41
2023-04-11T08:53:30.755Z,69.33
2023-04-11T08:54:30.885Z,70.20
2023-04-11T08:55:30.750Z,70.74
2023-04-11T08:56:30.754Z,69.08
2023-04-11T08:57:30.717Z,67.51
2023-04-11T08:58:30.711Z,66.69
2023-04-11T08:59:30.713Z,68.11
2023-04-11T09:00:30.700Z,67.55
2023-04-11T09:01:30.770Z,67.55
2023-04-11T09:02:30.739Z,67.50
2023-04-11T09:03:30.753Z,66.96
2023-04-11T09:04:30.675Z,66.75
2023-04-11T09:05:30.647Z,66.73
2023-04-11T09:06:30.661Z,66.55
2023-04-11T09:07:30.615Z,67.36
2023-04-11T09:08:30.921Z,67.78
2023-04-11T09:09:30.625Z,67.73
2023-04-11T09:10:30.623Z,69.79
2023-04-11T09:11:30.597Z,70.95
2023-04-11T09:12:30.571Z,71.30
2023-04-11T09:13:30.575Z,72.15
2023-04-11T09:14:30.601Z,70.65
2023-04-11T09:15:30.687Z,71.51
2023-04-11T09:16:30.551Z,71.16
2023-04-11T09:17:30.536Z,72.03
2023-04-11T09:18:30.510Z,72.08
2023-04-11T09:19:30.495Z,71.78
2023-04-11T09:20:30.601Z,71.19
2023-04-11T09:21:31.162Z,72.10
2023-04-11T09:22:30.474Z,72.50
2023-04-11T09:23:30.462Z,71.95
2023-04-11T09:24:30.450Z,71.24
2023-04-11T09:25:30.445Z,70.75
2023-04-11T09:26:30.523Z,70.04
2023-04-11T09:27:30.419Z,70.84
2023-04-11T09:28:30.409Z,71.47
2023-04-11T09:29:30.414Z,70.98
2023-04-11T09:30:30.390Z,71.55
2023-04-11T09:31:30.440Z,72.56
2023-04-11T09:32:30.474Z,73.86
2023-04-11T09:33:30.353Z,73.18
2023-04-11T09:34:30.341Z,73.05
2023-04-11T09:35:30.389Z,71.50
2023-04-11T09:36:30.403Z,71.18
2023-04-11T09:37:30.328Z,71.60
2023-04-11T09:38:30.318Z,70.99
2023-04-11T09:39:30.302Z,72.53
2023-04-11T09:40:30.301Z,71.76
2023-04-11T09:41:30.324Z,68.78
2023-04-11T09:42:30.320Z,69.97
2023-04-11T09:43:30.261Z,70.50
2023-04-11T09:44:30.252Z,70.49
2023-04-11T09:46:02.205Z,69.75
2023-04-11T09:46:30.282Z,70.29
2023-04-11T09:47:30.259Z,71.60
2023-04-11T09:48:45.527Z,73.61
2023-04-11T09:49:32.199Z,72.91
2023-04-11T09:50:30.182Z,73.91
2023-04-11T09:51:36.446Z,74.54
2023-04-11T09:52:32.178Z,72.52
2023-04-11T09:53:30.169Z,73.04
2023-04-11T09:54:30.152Z,72.89
2023-04-11T09:55:30.133Z,72.24
2023-04-11T09:56:30.149Z,72.65
2023-04-11T09:57:30.124Z,71.29
2023-04-11T09:58:31.319Z,72.29
2023-04-11T09:59:31.103Z,71.39
2023-04-11T10:00:30.143Z,69.80
2023-04-11T10:01:30.141Z,70.24
2023-04-11T10:02:30.172Z,71.12
2023-04-11T10:03:30.171Z,71.59
2023-04-11T10:04:30.123Z,71.52
2023-04-11T10:05:30.050Z,72.19
2023-04-11T10:06:30.081Z,71.89
2023-04-11T10:07:30.025Z,74.22
2023-04-11T10:08:30.026Z,73.86
2023-04-11T10:09:30.063Z,73.10
2023-04-11T10:10:30.010Z,73.95
2023-04-11T10:11:30.009Z,72.47
2023-04-11T10:12:29.969Z,72.67
2023-04-11T10:13:29.982Z,73.14
2023-04-11T10:14:29.945Z,73.94
2023-04-11T10:15:29.993Z,73.26
2023-04-11T10:16:29.941Z,73.28
2023-04-11T10:17:29.931Z,72.74
2023-04-11T10:18:29.916Z,71.90
2023-04-11T10:19:29.898Z,71.61
2023-04-11T10:20:29.913Z,71.08
2023-04-11T10:21:29.918Z,73.43
2023-04-11T10:22:29.875Z,72.97
2023-04-11T10:23:29.857Z,71.65
2023-04-11T10:24:29.849Z,71.55
2023-04-11T10:25:29.864Z,69.10
2023-04-11T10:26:29.846Z,72.27
2023-04-11T10:27:29.826Z,72.57
2023-04-11T10:28:29.826Z,73.14
2023-04-11T10:29:29.810Z,72.41
2023-04-11T10:30:29.835Z,71.39
2023-04-11T10:31:29.825Z,71.35
2023-04-11T10:32:29.805Z,71.47
2023-04-11T10:33:29.777Z,71.68
2023-04-11T10:34:29.748Z,71.31
2023-04-11T10:35:29.744Z,70.93
2023-04-11T10:36:29.755Z,72.28
2023-04-11T10:37:29.740Z,71.74
2023-04-11T10:38:29.716Z,71.36
2023-04-11T10:39:29.710Z,71.03
2023-04-11T10:40:29.700Z,70.87
2023-04-11T10:41:29.719Z,71.44
2023-04-11T10:42:29.672Z,71.02
2023-04-11T10:43:29.674Z,70.74
2023-04-11T10:44:29.649Z,70.09
2023-04-11T10:45:29.684Z,71.15
2023-04-11T10:46:29.671Z,71.21
2023-04-11T10:47:29.638Z,71.14
2023-04-11T10:48:29.616Z,71.70
2023-04-11T10:49:29.602Z,71.70
2023-04-11T10:50:29.633Z,71.74
2023-04-11T10:51:29.590Z,71.86
2023-04-11T10:52:29.581Z,72.84
2023-04-11T10:53:29.560Z,72.83
2023-04-11T10:54:29.566Z,71.51
2023-04-11T10:55:29.581Z,70.88
2023-04-11T10:56:29.545Z,69.88
2023-04-11T10:57:29.531Z,69.67
2023-04-11T10:58:29.508Z,70.48
2023-04-11T10:59:29.508Z,69.66
2023-04-11T11:00:30.221Z,70.13
2023-04-11T11:01:37.250Z,70.44
2023-04-11T11:02:31.716Z,71.64
2023-04-11T11:03:29.605Z,72.97
2023-04-11T11:04:29.551Z,73.12
2023-04-11T11:05:29.464Z,71.90
2023-04-11T11:06:29.464Z,71.45
2023-04-11T11:07:29.419Z,71.46
2023-04-11T11:08:29.404Z,70.08
2023-04-11T11:09:29.408Z,72.20
2023-04-11T11:10:29.392Z,73.26
2023-04-11T11:11:29.400Z,71.67
2023-04-11T11:12:29.358Z,73.00
2023-04-11T11:13:29.360Z,70.86
2023-04-11T11:14:29.354Z,72.95
2023-04-11T11:15:29.335Z,71.89
2023-04-11T11:16:29.380Z,71.41
2023-04-11T11:17:29.336Z,71.67
2023-04-11T11:18:29.311Z,71.26
2023-04-11T11:19:29.296Z,71.89
2023-04-11T11:20:30.331Z,70.72
2023-04-11T11:21:29.296Z,70.95
2023-04-11T11:22:29.285Z,70.52
2023-04-11T11:23:29.267Z,69.24
2023-04-11T11:24:29.255Z,70.39
2023-04-11T11:25:29.244Z,70.91
2023-04-11T11:26:29.270Z,71.46
2023-04-11T11:27:29.221Z,71.25
2023-04-11T11:29:30.216Z,73.43
2023-04-11T11:30:29.203Z,73.07
2023-04-11T11:31:29.216Z,74.37
2023-04-11T11:32:29.400Z,73.92
2023-04-11T11:33:29.158Z,70.79
2023-04-11T11:34:29.186Z,68.87
2023-04-11T11:35:29.137Z,70.38
2023-04-11T11:36:29.173Z,70.54
2023-04-11T11:37:29.124Z,70.73
2023-04-11T11:38:29.128Z,72.38
2023-04-11T11:39:29.118Z,71.78
2023-04-11T11:40:29.106Z,72.41
2023-04-11T11:41:29.095Z,72.99
2023-04-11T11:42:29.092Z,72.99
2023-04-11T11:43:29.073Z,70.93
2023-04-11T11:44:29.090Z,71.62
2023-04-11T11:45:29.052Z,71.85
2023-04-11T11:46:29.101Z,72.52
2023-04-11T11:47:29.044Z,70.31
2023-04-11T11:48:29.041Z,68.71
2023-04-11T11:49:29.007Z,68.52
2023-04-11T11:50:29.025Z,68.82
2023-04-11T11:51:29.011Z,70.36
2023-04-11T11:52:28.990Z,70.99
2023-04-11T11:53:28.967Z,71.39
2023-04-11T11:54:28.973Z,71.86
2023-04-11T11:55:28.953Z,73.28
2023-04-11T11:56:28.957Z,71.45
2023-04-11T11:57:28.945Z,70.93
2023-04-11T11:58:28.945Z,72.41
2023-04-11T11:59:28.967Z,72.18
2023-04-11T12:00:28.962Z,74.14
2023-04-11T12:01:28.919Z,70.54
2023-04-11T12:02:28.982Z,71.87
2023-04-11T12:03:29.006Z,71.69
2023-04-11T12:04:28.994Z,72.39
2023-04-11T12:05:28.965Z,71.64
2023-04-11T12:06:28.883Z,73.34
2023-04-11T12:07:28.845Z,73.89
2023-04-11T12:08:28.822Z,73.14
2023-04-11T12:09:28.804Z,70.64
2023-04-11T12:10:28.796Z,71.02
2023-04-11T12:11:28.849Z,71.42
2023-04-11T12:12:28.793Z,70.74
2023-04-11T12:13:28.784Z,71.30
2023-04-11T12:14:28.756Z,72.97
2023-04-11T12:15:28.785Z,70.41
2023-04-11T12:16:28.809Z,69.42
2023-04-11T12:17:28.767Z,69.75
2023-04-11T12:18:28.760Z,69.71
2023-04-11T12:19:28.702Z,69.00
2023-04-11T12:20:28.700Z,70.63
2023-04-11T12:21:28.724Z,72.00
2023-04-11T12:22:28.721Z,71.07
2023-04-11T12:23:28.669Z,70.21
2023-04-11T12:24:28.659Z,69.22
2023-04-11T12:25:28.674Z,71.52
2023-04-11T12:26:28.653Z,70.44
2023-04-11T12:27:28.672Z,69.57
2023-04-11T12:28:28.635Z,70.33
2023-04-11T12:29:28.615Z,73.01
2023-04-11T12:30:29.982Z,72.64
2023-04-11T12:31:28.634Z,70.99
2023-04-11T12:32:28.670Z,71.49
2023-04-11T12:33:28.616Z,70.74
2023-04-11T12:34:28.569Z,71.00
2023-04-11T12:35:28.555Z,71.99
2023-04-11T12:36:28.565Z,71.39
2023-04-11T12:37:28.539Z,71.18
2023-04-11T12:38:28.527Z,72.47
2023-04-11T12:39:28.516Z,70.07
2023-04-11T12:40:28.510Z,72.25
2023-04-11T12:41:31.709Z,71.98
2023-04-11T12:42:29.498Z,73.76
2023-04-11T12:43:28.520Z,73.95
2023-04-11T12:44:28.471Z,73.41
2023-04-11T12:45:28.450Z,73.65
2023-04-11T12:46:28.516Z,72.93
2023-04-11T12:47:28.472Z,72.82
2023-04-11T12:48:28.442Z,73.23
2023-04-11T12:49:28.414Z,72.67
2023-04-11T12:50:28.414Z,72.07
2023-04-11T12:51:28.450Z,71.97
2023-04-11T12:52:28.391Z,72.00
2023-04-11T12:53:28.371Z,71.83
2023-04-11T12:54:28.419Z,72.52
2023-04-11T12:55:28.393Z,72.64
2023-04-11T12:56:28.362Z,71.00